createdAt,value
2022-08-17T00:00:43.929Z,12.05
2022-08-17T00:01:27.943Z,11.60
2022-08-17T00:02:25.571Z,11.00
2022-08-17T00:03:03.156Z,10.75
2022-08-17T00:03:40.188Z,10.98
2022-08-17T00:04:13.499Z,11.07
2022-08-17T00:04:51.322Z,11.20
2022-08-17T00:05:27.765Z,11.88
2022-08-17T00:06:03.897Z,11.10
2022-08-17T00:06:39.553Z,11.07
2022-08-17T00:07:14.676Z,10.35
2022-08-17T00:07:49.292Z,11.27
2022-08-17T00:08:26.290Z,10.77
2022-08-17T00:09:00.884Z,11.30
2022-08-17T00:09:35.493Z,11.25
2022-08-17T00:10:12.807Z,11.00
2022-08-17T00:10:51.808Z,11.52
2022-08-17T00:11:31.029Z,11.15
2022-08-17T00:12:41.041Z,11.30
2022-08-17T00:13:00.226Z,10.73
2022-08-17T00:13:37.202Z,11.23
2022-08-17T00:14:13.240Z,10.00
2022-08-17T00:14:47.939Z,10.93
2022-08-17T00:15:24.345Z,10.93
2022-08-17T00:16:00.779Z,11.77
2022-08-17T00:16:55.611Z,11.07
2022-08-17T00:17:31.985Z,10.20
2022-08-17T00:19:06.566Z,11.73
2022-08-17T00:19:08.388Z,11.98
2022-08-17T00:19:43.070Z,10.45
2022-08-17T00:20:18.492Z,11.52
2022-08-17T00:22:28.683Z,10.48
2022-08-17T00:22:34.181Z,11.00
2022-08-17T00:23:11.776Z,10.95
2022-08-17T00:23:49.362Z,11.38
2022-08-17T00:24:25.551Z,11.20
2022-08-17T00:24:59.370Z,10.80
2022-08-17T00:25:34.493Z,11.30
2022-08-17T00:26:08.833Z,10.77
2022-08-17T00:26:46.253Z,11.25
2022-08-17T00:27:19.945Z,11.50
2022-08-17T00:27:54.561Z,11.40
2022-08-17T00:28:33.525Z,11.38
2022-08-17T00:29:07.847Z,10.50
2022-08-17T00:29:42.953Z,11.13
2022-08-17T00:30:17.490Z,10.77
2022-08-17T00:30:55.115Z,10.73
2022-08-17T00:31:29.035Z,11.00
2022-08-17T00:33:23.149Z,10.38
2022-08-17T00:33:23.406Z,10.32
2022-08-17T00:33:54.839Z,10.98
2022-08-17T00:34:30.711Z,10.40
2022-08-17T00:35:08.357Z,10.55
2022-08-17T00:35:42.043Z,10.77
2022-08-17T00:36:17.488Z,10.55
2022-08-17T00:36:52.588Z,10.55
2022-08-17T00:37:25.938Z,10.30
2022-08-17T00:38:00.660Z,11.23
2022-08-17T00:38:35.202Z,10.75
2022-08-17T00:39:09.376Z,11.35
2022-08-17T00:39:44.101Z,11.30
2022-08-17T00:40:19.238Z,10.75
2022-08-17T00:40:59.263Z,10.90
2022-08-17T00:41:35.893Z,11.30
2022-08-17T00:42:15.844Z,11.02
2022-08-17T00:42:49.889Z,10.77
2022-08-17T00:43:28.155Z,10.80
2022-08-17T00:44:03.446Z,10.48
2022-08-17T00:44:37.604Z,10.60
2022-08-17T00:45:13.678Z,10.73
2022-08-17T00:45:46.998Z,10.68
2022-08-17T00:46:22.952Z,10.55
2022-08-17T00:46:57.867Z,10.48
2022-08-17T00:47:31.309Z,10.23
2022-08-17T00:48:05.708Z,10.45
2022-08-17T00:49:00.756Z,9.85
2022-08-17T00:49:35.813Z,10.45
2022-08-17T00:50:11.117Z,10.10
2022-08-17T00:50:47.856Z,10.05
2022-08-17T00:51:27.379Z,10.55
2022-08-17T00:52:11.650Z,10.48
2022-08-17T00:52:54.386Z,10.43
2022-08-17T00:53:30.391Z,10.10
2022-08-17T00:54:08.135Z,9.95
2022-08-17T00:54:44.895Z,10.57
2022-08-17T00:55:18.830Z,10.68
2022-08-17T00:55:54.065Z,10.07
2022-08-17T00:56:32.694Z,10.20
2022-08-17T00:57:08.944Z,10.27
2022-08-17T00:57:47.092Z,10.98
2022-08-17T00:58:36.182Z,10.65
2022-08-17T00:59:11.862Z,9.27
2022-08-17T00:59:56.052Z,10.07
2022-08-17T01:00:40.130Z,10.60
2022-08-17T01:01:21.496Z,10.00
2022-08-17T01:01:57.090Z,10.57
2022-08-17T01:02:34.990Z,10.48
2022-08-17T01:03:21.109Z,10.10
2022-08-17T01:03:55.662Z,10.32
2022-08-17T01:04:33.666Z,10.77
2022-08-17T01:05:09.909Z,9.95
2022-08-17T01:05:44.310Z,10.52
2022-08-17T01:06:19.458Z,11.25
2022-08-17T01:06:56.794Z,11.15
2022-08-17T01:07:30.964Z,10.73
2022-08-17T01:08:07.747Z,11.45
2022-08-17T01:08:43.647Z,10.82
2022-08-17T01:09:19.442Z,11.07
2022-08-17T01:09:53.182Z,10.85
2022-08-17T01:10:58.345Z,11.43
2022-08-17T01:11:27.796Z,11.60
2022-08-17T01:12:03.031Z,11.82
2022-08-17T01:12:37.842Z,12.35
2022-08-17T01:13:14.574Z,11.70
2022-08-17T01:13:50.390Z,11.30
2022-08-17T01:14:25.594Z,12.02
2022-08-17T01:15:00.151Z,11.90
2022-08-17T01:15:37.018Z,11.98
2022-08-17T01:16:17.401Z,11.80
2022-08-17T01:17:28.003Z,11.70
2022-08-17T01:18:04.187Z,11.77
2022-08-17T01:18:39.442Z,12.32
2022-08-17T01:19:17.132Z,12.50
2022-08-17T01:19:52.885Z,12.13
2022-08-17T01:20:27.219Z,12.27
2022-08-17T01:21:05.390Z,12.07
2022-08-17T01:21:44.917Z,12.15
2022-08-17T01:22:24.316Z,11.90
2022-08-17T01:23:33.932Z,11.38
2022-08-17T01:24:08.957Z,10.95
2022-08-17T01:24:44.145Z,11.23
2022-08-17T01:25:19.670Z,10.88
2022-08-17T01:25:54.875Z,11.10
2022-08-17T01:26:29.724Z,10.90
2022-08-17T01:27:10.463Z,11.10
2022-08-17T01:27:45.580Z,10.98
2022-08-17T01:28:52.799Z,10.95
2022-08-17T01:29:14.864Z,10.15
2022-08-17T01:29:52.147Z,10.25
2022-08-17T01:30:58.018Z,10.05
2022-08-17T01:31:20.339Z,9.73
2022-08-17T01:31:55.157Z,10.30
2022-08-17T01:32:31.588Z,9.85
2022-08-17T01:33:06.267Z,9.73
2022-08-17T01:33:41.327Z,9.90
2022-08-17T01:34:17.148Z,10.02
2022-08-17T01:34:51.075Z,10.43
2022-08-17T01:35:27.021Z,9.85
2022-08-17T01:36:02.350Z,10.52
2022-08-17T01:36:37.245Z,10.15
2022-08-17T01:37:12.591Z,10.55
2022-08-17T01:37:50.145Z,9.45
2022-08-17T01:38:27.168Z,9.13
2022-08-17T01:39:02.126Z,9.77
2022-08-17T01:39:38.634Z,9.82
2022-08-17T01:40:15.740Z,8.90
2022-08-17T01:40:57.695Z,9.85
2022-08-17T01:41:34.326Z,9.88
2022-08-17T01:42:10.455Z,9.18
2022-08-17T01:42:50.050Z,9.52
2022-08-17T01:43:28.015Z,9.95
2022-08-17T01:44:02.926Z,9.82
2022-08-17T01:44:37.364Z,10.65
2022-08-17T01:45:17.682Z,9.30
2022-08-17T01:46:02.748Z,8.93
2022-08-17T01:46:39.546Z,10.02
2022-08-17T01:47:14.245Z,9.05
2022-08-17T01:47:48.183Z,9.27
2022-08-17T01:48:24.076Z,9.30
2022-08-17T01:48:58.717Z,9.82
2022-08-17T01:49:33.200Z,9.90
2022-08-17T01:50:10.228Z,9.73
2022-08-17T01:50:45.238Z,9.85
2022-08-17T01:51:21.241Z,9.68
2022-08-17T01:51:56.233Z,9.60
2022-08-17T01:52:30.710Z,9.43
2022-08-17T01:53:07.652Z,9.48
2022-08-17T01:53:44.304Z,9.07
2022-08-17T01:54:21.127Z,9.40
2022-08-17T01:54:57.397Z,9.63
2022-08-17T01:55:35.248Z,9.20
2022-08-17T01:56:11.648Z,9.13
2022-08-17T01:56:49.525Z,8.88
2022-08-17T01:57:25.851Z,8.80
2022-08-17T01:57:59.331Z,9.57
2022-08-17T01:58:37.569Z,9.15
2022-08-17T01:59:12.819Z,9.40
2022-08-17T01:59:47.040Z,9.02
2022-08-17T02:00:25.660Z,9.40
2022-08-17T02:01:02.679Z,9.38
2022-08-17T02:01:38.032Z,8.90
2022-08-17T02:02:13.158Z,8.82
2022-08-17T02:03:06.533Z,10.07
2022-08-17T02:03:40.726Z,8.43
2022-08-17T02:04:29.013Z,9.02
2022-08-17T02:05:03.805Z,9.00
2022-08-17T02:05:38.359Z,8.82
2022-08-17T02:06:27.540Z,9.15
2022-08-17T02:07:02.504Z,9.55
2022-08-17T02:08:00.036Z,8.60
2022-08-17T02:08:38.953Z,9.63
2022-08-17T02:09:32.391Z,12.48
2022-08-17T02:10:06.029Z,15.60
2022-08-17T02:10:55.607Z,18.60
2022-08-17T02:11:31.154Z,11.65
2022-08-17T02:12:38.497Z,12.07
2022-08-17T02:13:02.452Z,11.20
2022-08-17T02:13:35.883Z,9.68
2022-08-17T02:14:10.945Z,13.30
2022-08-17T02:14:45.158Z,11.55
2022-08-17T02:15:23.677Z,9.18
2022-08-17T02:15:58.728Z,10.68
2022-08-17T02:16:37.585Z,9.23
2022-08-17T02:17:12.555Z,8.60
2022-08-17T02:17:46.745Z,8.82
2022-08-17T02:18:30.648Z,8.45
2022-08-17T02:19:05.076Z,9.15
2022-08-17T02:19:38.726Z,9.05
2022-08-17T02:20:14.895Z,9.52
2022-08-17T02:21:08.799Z,8.35
2022-08-17T02:21:44.597Z,8.60
2022-08-17T02:22:19.832Z,8.10
2022-08-17T02:22:53.657Z,8.77
2022-08-17T02:23:28.129Z,9.27
2022-08-17T02:24:05.965Z,8.15
2022-08-17T02:25:00.385Z,8.38
2022-08-17T02:25:40.703Z,8.95
2022-08-17T02:26:25.753Z,8.70
2022-08-17T02:27:01.701Z,8.00
2022-08-17T02:27:37.329Z,9.80
2022-08-17T02:28:11.780Z,10.43
2022-08-17T02:28:45.710Z,9.50
2022-08-17T02:29:20.656Z,9.32
2022-08-17T02:29:53.809Z,9.18
2022-08-17T02:31:00.836Z,8.55
2022-08-17T02:31:24.025Z,9.77
2022-08-17T02:31:59.245Z,9.55
2022-08-17T02:32:34.511Z,9.18
2022-08-17T02:33:09.697Z,8.90
2022-08-17T02:33:44.333Z,8.15
2022-08-17T02:34:18.243Z,9.30
2022-08-17T02:34:55.385Z,9.13
2022-08-17T02:35:30.354Z,9.90
2022-08-17T02:36:04.148Z,9.05
2022-08-17T02:36:39.855Z,9.10
2022-08-17T02:37:13.974Z,9.77
2022-08-17T02:37:48.943Z,9.55
2022-08-17T02:38:32.199Z,10.65
2022-08-17T02:39:09.118Z,9.02
2022-08-17T02:39:44.609Z,9.73
2022-08-17T02:40:35.062Z,10.07
2022-08-17T02:41:10.459Z,10.32
2022-08-17T02:41:46.064Z,9.73
2022-08-17T02:42:20.339Z,9.68
2022-08-17T02:42:54.916Z,9.25
2022-08-17T02:43:32.903Z,10.43
2022-08-17T02:44:07.700Z,10.25
2022-08-17T02:44:41.324Z,9.20
2022-08-17T02:45:18.081Z,9.20
2022-08-17T02:45:52.621Z,9.52
2022-08-17T02:46:26.074Z,9.10
2022-08-17T02:46:59.448Z,8.70
2022-08-17T02:47:35.223Z,9.50
2022-08-17T02:48:09.835Z,9.10
2022-08-17T02:48:44.091Z,9.27
2022-08-17T02:49:19.509Z,9.20
2022-08-17T02:49:55.878Z,9.43
2022-08-17T02:50:30.129Z,9.65
2022-08-17T02:51:06.107Z,9.32
2022-08-17T02:51:40.806Z,9.60
2022-08-17T02:52:15.164Z,9.60
2022-08-17T02:53:01.980Z,9.05
2022-08-17T02:53:36.666Z,9.02
2022-08-17T02:54:40.210Z,9.10
2022-08-17T02:55:09.843Z,9.27
2022-08-17T02:55:45.285Z,9.50
2022-08-17T02:56:20.610Z,9.43
2022-08-17T02:56:55.358Z,9.38
2022-08-17T02:57:30.305Z,9.32
2022-08-17T02:58:06.453Z,10.02
2022-08-17T02:58:41.574Z,8.77
2022-08-17T02:59:16.062Z,9.40
2022-08-17T02:59:52.412Z,9.57
2022-08-17T03:00:29.852Z,9.30
2022-08-17T03:01:04.944Z,14.15
2022-08-17T03:01:39.031Z,10.63
2022-08-17T03:02:14.850Z,10.13
2022-08-17T03:02:49.622Z,11.60
2022-08-17T03:03:24.206Z,9.38
2022-08-17T03:03:58.708Z,9.60
2022-08-17T03:04:35.123Z,9.15
2022-08-17T03:05:11.321Z,9.77
2022-08-17T03:05:45.687Z,9.45
2022-08-17T03:06:21.574Z,9.68
2022-08-17T03:06:55.473Z,9.57
2022-08-17T03:07:32.798Z,9.45
2022-08-17T03:08:10.470Z,9.38
2022-08-17T03:08:46.742Z,9.43
2022-08-17T03:09:23.760Z,10.32
2022-08-17T03:10:00.783Z,10.00
2022-08-17T03:10:34.882Z,11.05
2022-08-17T03:11:11.088Z,10.15
2022-08-17T03:11:45.825Z,9.18
2022-08-17T03:12:21.275Z,10.63
2022-08-17T03:12:57.002Z,10.27
2022-08-17T03:13:30.996Z,10.30
2022-08-17T03:14:05.005Z,10.48
2022-08-17T03:14:41.890Z,10.38
2022-08-17T03:15:17.745Z,10.05
2022-08-17T03:15:51.552Z,10.20
2022-08-17T03:16:27.142Z,9.77
2022-08-17T03:17:02.370Z,10.20
2022-08-17T03:17:36.605Z,10.60
2022-08-17T03:18:18.991Z,10.95
2022-08-17T03:19:00.903Z,10.25
2022-08-17T03:19:35.355Z,10.32
2022-08-17T03:20:14.652Z,11.07
2022-08-17T03:20:50.252Z,10.77
2022-08-17T03:21:27.768Z,11.20
2022-08-17T03:22:01.393Z,11.20
2022-08-17T03:23:01.739Z,11.93
2022-08-17T03:23:41.321Z,12.10
2022-08-17T03:24:16.557Z,12.95
2022-08-17T03:24:53.177Z,12.15
2022-08-17T03:25:29.515Z,12.48
2022-08-17T03:26:04.895Z,13.60
2022-08-17T03:26:46.859Z,14.20
2022-08-17T03:27:19.911Z,12.95
2022-08-17T03:27:56.277Z,13.48
2022-08-17T03:28:33.983Z,13.35
2022-08-17T03:29:08.164Z,13.70
2022-08-17T03:29:43.767Z,13.02
2022-08-17T03:30:17.971Z,15.00
2022-08-17T03:30:56.868Z,13.98
2022-08-17T03:31:32.442Z,14.57
2022-08-17T03:32:13.544Z,15.60
2022-08-17T03:32:48.632Z,14.95
2022-08-17T03:33:22.608Z,14.82
2022-08-17T03:33:59.232Z,15.63
2022-08-17T03:34:34.651Z,14.50
2022-08-17T03:35:08.845Z,16.77
2022-08-17T03:35:43.883Z,17.63
2022-08-17T03:36:18.611Z,17.38
2022-08-17T03:36:52.460Z,16.50
2022-08-17T03:37:26.482Z,17.05
2022-08-17T03:38:01.443Z,16.98
2022-08-17T03:38:39.430Z,17.33
2022-08-17T03:39:13.804Z,15.88
2022-08-17T03:39:49.202Z,16.40
2022-08-17T03:40:34.487Z,16.50
2022-08-17T03:41:18.451Z,16.35
2022-08-17T03:41:53.973Z,16.58
2022-08-17T03:42:32.053Z,16.30
2022-08-17T03:43:10.109Z,16.30
2022-08-17T03:43:44.652Z,15.32
2022-08-17T03:44:20.583Z,16.02
2022-08-17T03:44:57.751Z,15.63
2022-08-17T03:45:49.262Z,14.32
2022-08-17T03:46:59.732Z,15.55
2022-08-17T03:47:50.815Z,15.30
2022-08-17T03:48:43.817Z,16.40
2022-08-17T03:49:35.893Z,15.32
2022-08-17T03:50:30.301Z,16.75
2022-08-17T03:51:22.396Z,15.82
2022-08-17T03:52:15.330Z,16.05
2022-08-17T03:53:08.561Z,17.05
2022-08-17T03:54:07.778Z,47.00
2022-08-17T03:55:00.347Z,30.88
2022-08-17T03:55:54.938Z,17.05
2022-08-17T03:56:45.298Z,18.15
2022-08-17T03:57:20.064Z,19.02
2022-08-17T03:57:56.280Z,18.63
2022-08-17T03:58:30.594Z,17.98
2022-08-17T03:59:05.460Z,26.85
2022-08-17T03:59:41.108Z,18.73
2022-08-17T04:00:19.691Z,17.38
2022-08-17T04:00:57.784Z,18.77
2022-08-17T04:01:34.227Z,17.95
2022-08-17T04:02:10.135Z,18.42
2022-08-17T04:02:45.296Z,18.88
2022-08-17T04:03:21.087Z,18.30
2022-08-17T04:03:55.494Z,18.48
2022-08-17T04:04:30.517Z,18.08
2022-08-17T04:05:06.009Z,18.10
2022-08-17T04:05:39.839Z,18.33
2022-08-17T04:06:15.018Z,17.83
2022-08-17T04:06:50.258Z,18.92
2022-08-17T04:07:26.325Z,19.52
2022-08-17T04:07:59.976Z,18.80
2022-08-17T04:08:35.631Z,19.40
2022-08-17T04:09:10.489Z,18.83
2022-08-17T04:09:45.037Z,18.77
2022-08-17T04:10:18.896Z,18.50
2022-08-17T04:10:54.793Z,18.17
2022-08-17T04:11:29.901Z,19.13
2022-08-17T04:12:04.923Z,18.45
2022-08-17T04:12:46.035Z,18.33
2022-08-17T04:13:24.225Z,18.73
2022-08-17T04:14:00.643Z,19.42
2022-08-17T04:14:52.076Z,18.77
2022-08-17T04:15:27.737Z,18.05
2022-08-17T04:16:03.389Z,19.02
2022-08-17T04:16:38.775Z,18.05
2022-08-17T04:17:13.203Z,19.20
2022-08-17T04:17:48.891Z,18.55
2022-08-17T04:18:23.547Z,19.67
2022-08-17T04:18:58.794Z,19.88
2022-08-17T04:19:34.093Z,19.33
2022-08-17T04:20:08.406Z,21.48
2022-08-17T04:20:42.583Z,20.90
2022-08-17T04:21:19.124Z,20.10
2022-08-17T04:21:53.448Z,20.58
2022-08-17T04:22:30.601Z,19.88
2022-08-17T04:23:10.119Z,20.13
2022-08-17T04:23:45.342Z,19.85
2022-08-17T04:24:21.616Z,20.13
2022-08-17T04:24:56.525Z,20.70
2022-08-17T04:25:33.715Z,20.58
2022-08-17T04:26:10.667Z,20.85
2022-08-17T04:27:04.918Z,21.67
2022-08-17T04:27:39.764Z,21.20
2022-08-17T04:28:15.946Z,22.10
2022-08-17T04:28:51.028Z,20.83
2022-08-17T04:29:27.407Z,20.63
2022-08-17T04:30:21.717Z,20.98
2022-08-17T04:30:57.328Z,21.45
2022-08-17T04:31:33.962Z,22.15
2022-08-17T04:32:08.396Z,20.45
2022-08-17T04:33:04.943Z,21.10
2022-08-17T04:33:43.247Z,21.20
2022-08-17T04:34:19.666Z,21.60
2022-08-17T04:34:54.330Z,23.25
2022-08-17T04:35:29.854Z,21.50
2022-08-17T04:36:09.140Z,21.88
2022-08-17T04:36:47.992Z,22.25
2022-08-17T04:37:24.854Z,21.98
2022-08-17T04:38:00.166Z,22.60
2022-08-17T04:38:34.993Z,20.83
2022-08-17T04:39:08.703Z,23.15
2022-08-17T04:40:04.741Z,21.63
2022-08-17T04:40:56.498Z,22.33
2022-08-17T04:41:50.803Z,23.55
2022-08-17T04:42:25.397Z,21.95
2022-08-17T04:43:03.838Z,22.15
2022-08-17T04:43:39.485Z,22.77
2022-08-17T04:44:15.267Z,23.20
2022-08-17T04:45:10.764Z,22.13
2022-08-17T04:45:51.202Z,23.77
2022-08-17T04:46:33.521Z,22.75
2022-08-17T04:47:08.674Z,24.63
2022-08-17T04:47:46.938Z,27.20
2022-08-17T04:48:21.555Z,26.30
2022-08-17T04:48:59.281Z,26.30
2022-08-17T04:49:34.109Z,27.10
2022-08-17T04:50:08.730Z,69.25
2022-08-17T04:50:46.029Z,45.05
2022-08-17T04:51:21.940Z,54.42
2022-08-17T04:51:59.078Z,27.13
2022-08-17T04:52:46.700Z,27.08
2022-08-17T04:53:22.704Z,28.10
2022-08-17T04:53:59.546Z,29.70
2022-08-17T04:54:33.934Z,29.92
2022-08-17T04:55:10.872Z,29.50
2022-08-17T04:55:45.822Z,29.10
2022-08-17T04:56:20.864Z,30.45
2022-08-17T04:56:57.028Z,29.10
2022-08-17T04:57:39.502Z,29.40
2022-08-17T04:58:20.637Z,29.73
2022-08-17T04:58:57.622Z,28.80
2022-08-17T04:59:32.337Z,29.45
2022-08-17T05:00:08.089Z,29.13
2022-08-17T05:00:44.437Z,31.02
2022-08-17T05:01:23.809Z,29.70
2022-08-17T05:02:00.463Z,30.15
2022-08-17T05:02:35.175Z,28.92
2022-08-17T05:03:24.176Z,28.58
2022-08-17T05:04:01.894Z,29.25
2022-08-17T05:04:55.125Z,30.75
2022-08-17T05:05:33.671Z,30.20
2022-08-17T05:06:10.423Z,29.55
2022-08-17T05:06:46.007Z,30.23
2022-08-17T05:07:24.654Z,30.35
2022-08-17T05:08:00.990Z,30.15
2022-08-17T05:08:35.518Z,29.98
2022-08-17T05:09:10.905Z,28.15
2022-08-17T05:09:44.616Z,30.20
2022-08-17T05:10:19.162Z,27.65
2022-08-17T05:10:53.453Z,29.52
2022-08-17T05:11:28.974Z,27.95
2022-08-17T05:12:04.840Z,28.50
2022-08-17T05:12:39.235Z,30.05
2022-08-17T05:13:16.176Z,29.30
2022-08-17T05:13:51.416Z,30.25
2022-08-17T05:14:33.521Z,28.92
2022-08-17T05:15:12.501Z,29.15
2022-08-17T05:15:47.903Z,29.63
2022-08-17T05:16:24.385Z,31.02
2022-08-17T05:16:59.445Z,29.50
2022-08-17T05:17:35.447Z,30.27
2022-08-17T05:18:11.858Z,30.17
2022-08-17T05:18:46.138Z,31.58
2022-08-17T05:19:22.377Z,30.33
2022-08-17T05:19:56.018Z,30.30
2022-08-17T05:20:30.961Z,30.88
2022-08-17T05:21:07.393Z,30.88
2022-08-17T05:21:41.300Z,29.83
2022-08-17T05:22:15.963Z,29.92
2022-08-17T05:22:55.884Z,29.30
2022-08-17T05:23:41.956Z,28.92
2022-08-17T05:24:39.846Z,30.73
2022-08-17T05:25:12.415Z,30.38
2022-08-17T05:25:48.926Z,30.00
2022-08-17T05:26:27.354Z,29.63
2022-08-17T05:27:06.712Z,29.73
2022-08-17T05:27:41.327Z,29.70
2022-08-17T05:28:18.572Z,29.10
2022-08-17T05:28:59.691Z,29.52
2022-08-17T05:29:37.922Z,28.30
2022-08-17T05:30:14.530Z,30.85
2022-08-17T05:30:49.506Z,29.50
2022-08-17T05:31:25.356Z,28.38
2022-08-17T05:31:58.984Z,28.65
2022-08-17T05:32:38.702Z,29.98
2022-08-17T05:33:16.111Z,29.10
2022-08-17T05:33:51.821Z,29.63
2022-08-17T05:34:25.300Z,29.92
2022-08-17T05:35:01.305Z,28.17
2022-08-17T05:35:38.423Z,28.02
2022-08-17T05:36:41.708Z,29.17
2022-08-17T05:37:10.013Z,30.85
2022-08-17T05:37:44.726Z,28.05
2022-08-17T05:38:20.808Z,27.23
2022-08-17T05:38:56.730Z,27.90
2022-08-17T05:39:31.323Z,26.90
2022-08-17T05:40:08.264Z,29.23
2022-08-17T05:40:45.013Z,27.70
2022-08-17T05:41:19.503Z,28.30
2022-08-17T05:41:54.500Z,27.92
2022-08-17T05:42:30.060Z,27.42
2022-08-17T05:43:08.158Z,29.48
2022-08-17T05:43:45.721Z,27.48
2022-08-17T05:44:19.609Z,25.63
2022-08-17T05:44:54.638Z,26.85
2022-08-17T05:45:54.678Z,26.40
2022-08-17T05:46:25.625Z,25.55
2022-08-17T05:47:01.614Z,26.35
2022-08-17T05:47:35.035Z,25.92
2022-08-17T05:48:10.926Z,25.77
2022-08-17T05:48:47.154Z,24.58
2022-08-17T05:49:27.794Z,25.60
2022-08-17T05:50:03.150Z,26.35
2022-08-17T05:50:50.357Z,24.80
2022-08-17T05:51:52.240Z,25.90
2022-08-17T05:52:32.046Z,24.98
2022-08-17T05:53:08.569Z,25.80
2022-08-17T05:53:47.540Z,27.25
2022-08-17T05:54:30.068Z,26.87
2022-08-17T05:55:15.771Z,24.90
2022-08-17T05:55:54.389Z,25.00
2022-08-17T05:56:37.500Z,24.52
2022-08-17T05:57:27.387Z,25.70
2022-08-17T05:58:12.708Z,25.27
2022-08-17T05:58:51.386Z,65.35
2022-08-17T05:59:31.225Z,25.42
2022-08-17T06:00:08.214Z,66.05
2022-08-17T06:00:58.179Z,32.65
2022-08-17T06:01:36.958Z,25.08
2022-08-17T06:02:17.155Z,23.88
2022-08-17T06:03:21.463Z,23.05
2022-08-17T06:03:59.039Z,21.38
2022-08-17T06:04:37.836Z,22.33
2022-08-17T06:05:16.769Z,21.42
2022-08-17T06:05:55.448Z,22.90
2022-08-17T06:06:40.950Z,23.13
2022-08-17T06:07:19.929Z,23.00
2022-08-17T06:07:58.516Z,23.27
2022-08-17T06:08:35.249Z,23.30
2022-08-17T06:09:26.630Z,21.83
2022-08-17T06:10:04.360Z,21.65
2022-08-17T06:10:43.129Z,21.40
2022-08-17T06:11:24.781Z,20.88
2022-08-17T06:12:01.190Z,21.27
2022-08-17T06:12:43.057Z,21.00
2022-08-17T06:13:21.985Z,21.15
2022-08-17T06:14:04.472Z,21.33
2022-08-17T06:14:46.929Z,19.63
2022-08-17T06:15:26.079Z,20.90
2022-08-17T06:16:04.045Z,20.17
2022-08-17T06:16:41.812Z,19.70
2022-08-17T06:17:19.454Z,31.50
2022-08-17T06:17:54.880Z,18.80
2022-08-17T06:18:33.513Z,18.52
2022-08-17T06:19:11.437Z,18.23
2022-08-17T06:19:49.720Z,18.00
2022-08-17T06:20:24.182Z,17.92
2022-08-17T06:20:59.511Z,18.33
2022-08-17T06:21:36.571Z,19.13
2022-08-17T06:22:14.674Z,18.70
2022-08-17T06:22:50.433Z,18.40
2022-08-17T06:23:29.192Z,19.17
2022-08-17T06:24:05.945Z,18.50
2022-08-17T06:24:45.213Z,19.52
2022-08-17T06:25:20.788Z,19.00
2022-08-17T06:25:58.205Z,18.15
2022-08-17T06:26:39.596Z,18.38
2022-08-17T06:27:21.662Z,17.80
2022-08-17T06:27:57.958Z,19.65
2022-08-17T06:28:40.277Z,18.73
2022-08-17T06:29:19.092Z,18.45
2022-08-17T06:29:56.237Z,17.83
2022-08-17T06:30:41.396Z,19.02
2022-08-17T06:31:30.016Z,17.25
2022-08-17T06:32:06.050Z,16.48
2022-08-17T06:32:42.353Z,16.20
2022-08-17T06:33:22.063Z,16.67
2022-08-17T06:33:57.621Z,16.95
2022-08-17T06:34:34.629Z,16.67
2022-08-17T06:35:12.247Z,16.92
2022-08-17T06:35:51.905Z,17.67
2022-08-17T06:36:31.889Z,16.20
2022-08-17T06:37:11.339Z,16.65
2022-08-17T06:37:53.099Z,18.05
2022-08-17T06:38:37.151Z,16.88
2022-08-17T06:39:23.335Z,16.77
2022-08-17T06:40:02.489Z,17.08
2022-08-17T06:40:46.617Z,15.93
2022-08-17T06:41:26.877Z,14.95
2022-08-17T06:43:04.981Z,16.27
2022-08-17T06:43:19.175Z,16.67
2022-08-17T06:44:02.096Z,17.52
2022-08-17T06:44:50.226Z,16.02
2022-08-17T06:45:29.238Z,15.18
2022-08-17T06:46:04.758Z,15.38
2022-08-17T06:46:41.636Z,32.00
2022-08-17T06:47:28.839Z,16.67
2022-08-17T06:48:06.033Z,17.67
2022-08-17T06:48:44.018Z,15.68
2022-08-17T06:49:22.872Z,15.05
2022-08-17T06:50:03.032Z,14.88
2022-08-17T06:51:17.964Z,15.20
2022-08-17T06:51:53.793Z,15.23
2022-08-17T06:52:46.144Z,15.00
2022-08-17T06:53:24.139Z,14.70
2022-08-17T06:54:01.551Z,14.93
2022-08-17T06:54:39.701Z,14.88
2022-08-17T06:55:18.158Z,14.80
2022-08-17T06:55:57.781Z,14.37
2022-08-17T06:56:54.195Z,14.68
2022-08-17T06:57:30.229Z,14.77
2022-08-17T06:58:15.935Z,14.65
2022-08-17T06:58:50.926Z,14.80
2022-08-17T06:59:54.389Z,14.90
2022-08-17T07:00:25.083Z,15.10
2022-08-17T07:01:08.519Z,14.07
2022-08-17T07:01:44.205Z,14.40
2022-08-17T07:02:20.542Z,14.60
2022-08-17T07:03:09.325Z,14.20
2022-08-17T07:03:47.724Z,14.18
2022-08-17T07:04:25.364Z,14.55
2022-08-17T07:05:02.421Z,14.18
2022-08-17T07:05:39.946Z,14.23
2022-08-17T07:06:17.482Z,14.00
2022-08-17T07:06:54.553Z,14.35
2022-08-17T07:07:47.244Z,13.40
2022-08-17T07:08:29.663Z,14.95
2022-08-17T07:09:07.660Z,14.05
2022-08-17T07:09:41.962Z,13.75
2022-08-17T07:10:17.204Z,14.20
2022-08-17T07:10:56.278Z,13.82
2022-08-17T07:11:33.684Z,13.43
2022-08-17T07:12:15.720Z,14.48
2022-08-17T07:12:50.329Z,14.15
2022-08-17T07:13:26.905Z,13.38
2022-08-17T07:14:12.877Z,13.73
2022-08-17T07:14:54.654Z,14.35
2022-08-17T07:15:34.683Z,13.13
2022-08-17T07:16:15.364Z,13.32
2022-08-17T07:16:52.102Z,13.15
2022-08-17T07:17:46.600Z,13.50
2022-08-17T07:18:24.208Z,13.32
2022-08-17T07:19:00.194Z,12.75
2022-08-17T07:19:38.258Z,13.30
2022-08-17T07:20:15.371Z,11.95
2022-08-17T07:20:53.844Z,13.32
2022-08-17T07:21:38.760Z,13.60
2022-08-17T07:22:20.749Z,12.30
2022-08-17T07:22:59.884Z,13.35
2022-08-17T07:23:38.453Z,13.55
2022-08-17T07:24:29.530Z,13.10
2022-08-17T07:25:07.030Z,13.20
2022-08-17T07:25:41.420Z,13.73
2022-08-17T07:26:17.026Z,12.25
2022-08-17T07:27:03.573Z,12.18
2022-08-17T07:27:41.359Z,12.00
2022-08-17T07:28:18.096Z,11.93
2022-08-17T07:28:55.746Z,11.55
2022-08-17T07:29:34.946Z,11.50
2022-08-17T07:30:18.224Z,10.60
2022-08-17T07:30:55.623Z,10.07
2022-08-17T07:31:31.445Z,10.75
2022-08-17T07:32:07.051Z,10.80
2022-08-17T07:32:44.626Z,11.90
2022-08-17T07:33:26.401Z,11.27
2022-08-17T07:34:03.647Z,10.80
2022-08-17T07:35:00.403Z,10.43
2022-08-17T07:35:41.372Z,10.93
2022-08-17T07:36:29.879Z,10.05
2022-08-17T07:37:06.654Z,11.77
2022-08-17T07:37:41.615Z,11.55
2022-08-17T07:38:24.973Z,11.18
2022-08-17T07:39:01.169Z,10.55
2022-08-17T07:39:36.812Z,11.45
2022-08-17T07:40:31.928Z,10.43
2022-08-17T07:41:09.162Z,11.93
2022-08-17T07:41:57.622Z,11.85
2022-08-17T07:42:34.542Z,11.80
2022-08-17T07:43:21.904Z,10.80
2022-08-17T07:43:59.340Z,10.90
2022-08-17T07:44:52.266Z,10.32
2022-08-17T07:45:46.518Z,10.27
2022-08-17T07:46:42.237Z,9.07
2022-08-17T07:47:35.689Z,9.25
2022-08-17T07:48:22.269Z,9.20
2022-08-17T07:48:58.570Z,8.98
2022-08-17T07:49:35.653Z,8.80
2022-08-17T07:50:27.167Z,8.52
2022-08-17T07:51:02.357Z,9.20
2022-08-17T07:51:38.255Z,9.05
2022-08-17T07:52:47.660Z,8.57
2022-08-17T07:53:17.836Z,8.95
2022-08-17T07:53:52.885Z,8.95
2022-08-17T07:54:31.371Z,8.93
2022-08-17T07:55:26.304Z,9.45
2022-08-17T07:56:01.107Z,9.13
2022-08-17T07:56:46.072Z,9.90
2022-08-17T07:57:32.268Z,8.73
2022-08-17T07:58:06.637Z,9.63
2022-08-17T07:58:42.815Z,9.18
2022-08-17T07:59:23.585Z,9.73
2022-08-17T08:00:31.974Z,9.23
2022-08-17T08:01:11.650Z,8.60
2022-08-17T08:01:55.493Z,9.18
2022-08-17T08:02:39.219Z,8.57
2022-08-17T08:03:15.442Z,8.60
2022-08-17T08:03:50.504Z,8.63
2022-08-17T08:05:48.588Z,7.70
2022-08-17T08:06:23.084Z,7.93
2022-08-17T08:07:00.126Z,7.85
2022-08-17T08:07:36.848Z,7.65
2022-08-17T08:08:22.479Z,7.22
2022-08-17T08:09:01.159Z,8.02
2022-08-17T08:09:38.563Z,7.30
2022-08-17T08:10:14.894Z,7.43
2022-08-17T08:10:59.498Z,7.00
2022-08-17T08:11:35.308Z,7.50
2022-08-17T08:12:33.354Z,7.75
2022-08-17T08:13:14.568Z,7.47
2022-08-17T08:13:49.981Z,7.78
2022-08-17T08:14:28.382Z,7.40
2022-08-17T08:15:05.841Z,7.35
2022-08-17T08:15:44.940Z,7.68
2022-08-17T08:16:30.894Z,8.20
2022-08-17T08:17:06.124Z,6.85
2022-08-17T08:17:53.781Z,7.00
2022-08-17T08:18:53.243Z,6.90
2022-08-17T08:19:27.319Z,7.57
2022-08-17T08:20:51.358Z,7.00
2022-08-17T08:21:00.741Z,7.07
2022-08-17T08:21:43.887Z,6.20
2022-08-17T08:22:20.167Z,6.70
2022-08-17T08:23:02.803Z,6.28
2022-08-17T08:23:42.823Z,5.70
2022-08-17T08:24:32.563Z,5.50
2022-08-17T08:25:11.506Z,6.07
2022-08-17T08:25:53.681Z,6.15
2022-08-17T08:26:33.677Z,6.28
2022-08-17T08:27:12.665Z,5.50
2022-08-17T08:27:50.763Z,5.07
2022-08-17T08:28:30.705Z,4.95